Terminal Aerodrome Forecast
Issued by NWS Grand Forks, ND

Home | Current Version | Previous Version | Graphics & Text | Print | Product List | Glossary On
Versions: 1 2 3 4 5 6 7 8 9 10 11 12 13 14 15
000
FTUS43 KFGF 210520
TAFFAR
TAF
KFAR 210520Z 2106/2206 16010KT P6SM SKC
     FM211200 16011KT P6SM SCT250 WS020/17040KT
     FM211300 16012KT P6SM SCT250
     FM220100 15008KT P6SM FEW150=

USA.gov is the U.S. government's official web portal to all federal, state and local government web resources and services.